sensor_id;sensor_type;location;lat;lon;timestamp;P1;durP1;ratioP1;P2;durP2;ratioP2
19456;SDS011;9867;48.094;11.478;2023-02-28T00:00:47;4.23;;;3.87;;
19456;SDS011;9867;48.094;11.478;2023-02-28T00:03:13;4.60;;;4.20;;
19456;SDS011;9867;48.094;11.478;2023-02-28T00:05:40;5.70;;;4.20;;
19456;SDS011;9867;48.094;11.478;2023-02-28T00:08:07;3.70;;;3.40;;
19456;SDS011;9867;48.094;11.478;2023-02-28T00:10:34;4.43;;;3.63;;
19456;SDS011;9867;48.094;11.478;2023-02-28T00:13:02;5.03;;;4.10;;
19456;SDS011;9867;48.094;11.478;2023-02-28T00:15:31;4.70;;;3.87;;
19456;SDS011;9867;48.094;11.478;2023-02-28T00:17:57;4.67;;;4.07;;
19456;SDS011;9867;48.094;11.478;2023-02-28T00:20:24;4.60;;;4.03;;
19456;SDS011;9867;48.094;11.478;2023-02-28T00:22:51;6.33;;;4.00;;
19456;SDS011;9867;48.094;11.478;2023-02-28T00:25:20;5.17;;;3.77;;
19456;SDS011;9867;48.094;11.478;2023-02-28T00:27:47;7.40;;;3.97;;
19456;SDS011;9867;48.094;11.478;2023-02-28T00:30:16;4.20;;;3.80;;
19456;SDS011;9867;48.094;11.478;2023-02-28T00:32:44;5.17;;;4.27;;
19456;SDS011;9867;48.094;11.478;2023-02-28T00:35:11;4.87;;;4.40;;
19456;SDS011;9867;48.094;11.478;2023-02-28T00:37:41;5.77;;;4.27;;
19456;SDS011;9867;48.094;11.478;2023-02-28T00:40:08;3.97;;;3.67;;
19456;SDS011;9867;48.094;11.478;2023-02-28T00:42:36;4.83;;;3.70;;
19456;SDS011;9867;48.094;11.478;2023-02-28T00:45:03;7.23;;;3.70;;
19456;SDS011;9867;48.094;11.478;2023-02-28T00:47:31;7.10;;;4.03;;
19456;SDS011;9867;48.094;11.478;2023-02-28T00:49:58;5.60;;;3.90;;
19456;SDS011;9867;48.094;11.478;2023-02-28T00:52:25;4.40;;;4.03;;
19456;SDS011;9867;48.094;11.478;2023-02-28T00:54:53;4.53;;;4.10;;
19456;SDS011;9867;48.094;11.478;2023-02-28T00:57:19;4.77;;;4.33;;
19456;SDS011;9867;48.094;11.478;2023-02-28T00:59:47;6.73;;;4.50;;
19456;SDS011;9867;48.094;11.478;2023-02-28T01:02:14;5.17;;;4.20;;
19456;SDS011;9867;48.094;11.478;2023-02-28T01:04:41;4.70;;;4.30;;
19456;SDS011;9867;48.094;11.478;2023-02-28T01:07:08;4.47;;;4.07;;
19456;SDS011;9867;48.094;11.478;2023-02-28T01:09:35;5.93;;;4.20;;
19456;SDS011;9867;48.094;11.478;2023-02-28T01:12:01;4.50;;;4.00;;
19456;SDS011;9867;48.094;11.478;2023-02-28T01:14:28;4.20;;;3.87;;
19456;SDS011;9867;48.094;11.478;2023-02-28T01:16:55;7.27;;;4.27;;
19456;SDS011;9867;48.094;11.478;2023-02-28T01:19:24;5.80;;;4.53;;
19456;SDS011;9867;48.094;11.478;2023-02-28T01:21:51;4.47;;;4.07;;
19456;SDS011;9867;48.094;11.478;2023-02-28T01:24:18;4.77;;;4.37;;
19456;SDS011;9867;48.094;11.478;2023-02-28T01:26:44;5.07;;;4.57;;
19456;SDS011;9867;48.094;11.478;2023-02-28T01:29:11;4.50;;;4.10;;
19456;SDS011;9867;48.094;11.478;2023-02-28T01:31:37;5.30;;;4.83;;
19456;SDS011;9867;48.094;11.478;2023-02-28T01:34:07;5.40;;;4.77;;
19456;SDS011;9867;48.094;11.478;2023-02-28T01:36:33;5.80;;;4.80;;
19456;SDS011;9867;48.094;11.478;2023-02-28T01:39:00;5.20;;;3.93;;
19456;SDS011;9867;48.094;11.478;2023-02-28T01:41:28;5.23;;;4.63;;
19456;SDS011;9867;48.094;11.478;2023-02-28T01:43:59;5.57;;;4.83;;
19456;SDS011;9867;48.094;11.478;2023-02-28T01:46:29;4.57;;;4.03;;
19456;SDS011;9867;48.094;11.478;2023-02-28T01:48:58;4.53;;;4.13;;
19456;SDS011;9867;48.094;11.478;2023-02-28T01:51:31;5.43;;;4.10;;
19456;SDS011;9867;48.094;11.478;2023-02-28T01:54:05;5.37;;;4.37;;
19456;SDS011;9867;48.094;11.478;2023-02-28T01:56:40;4.67;;;4.13;;
19456;SDS011;9867;48.094;11.478;2023-02-28T01:59:09;5.03;;;4.53;;
19456;SDS011;9867;48.094;11.478;2023-02-28T02:01:38;8.30;;;4.30;;
19456;SDS011;9867;48.094;11.478;2023-02-28T02:04:05;5.13;;;4.70;;
19456;SDS011;9867;48.094;11.478;2023-02-28T02:06:34;5.00;;;4.57;;
19456;SDS011;9867;48.094;11.478;2023-02-28T02:09:07;5.43;;;4.13;;
19456;SDS011;9867;48.094;11.478;2023-02-28T02:11:34;5.40;;;4.90;;
19456;SDS011;9867;48.094;11.478;2023-02-28T02:17:07;5.70;;;5.10;;
19456;SDS011;9867;48.094;11.478;2023-02-28T02:22:58;6.10;;;5.50;;
19456;SDS011;9867;48.094;11.478;2023-02-28T02:25:49;5.87;;;5.27;;
19456;SDS011;9867;48.094;11.478;2023-02-28T02:31:28;5.70;;;5.20;;
19456;SDS011;9867;48.094;11.478;2023-02-28T02:34:18;6.10;;;5.60;;
19456;SDS011;9867;48.094;11.478;2023-02-28T02:36:53;7.47;;;5.13;;
19456;SDS011;9867;48.094;11.478;2023-02-28T02:39:27;5.70;;;5.20;;
19456;SDS011;9867;48.094;11.478;2023-02-28T02:41:59;6.13;;;5.53;;
19456;SDS011;9867;48.094;11.478;2023-02-28T02:44:28;7.53;;;5.20;;
19456;SDS011;9867;48.094;11.478;2023-02-28T02:47:02;6.90;;;5.87;;
19456;SDS011;9867;48.094;11.478;2023-02-28T02:49:35;5.77;;;5.27;;
19456;SDS011;9867;48.094;11.478;2023-02-28T02:52:05;6.10;;;5.60;;
19456;SDS011;9867;48.094;11.478;2023-02-28T02:54:36;6.43;;;5.50;;
19456;SDS011;9867;48.094;11.478;2023-02-28T02:57:07;6.20;;;5.60;;
19456;SDS011;9867;48.094;11.478;2023-02-28T02:59:38;7.10;;;6.40;;
19456;SDS011;9867;48.094;11.478;2023-02-28T03:02:06;6.57;;;5.77;;
19456;SDS011;9867;48.094;11.478;2023-02-28T03:04:36;6.10;;;5.60;;
19456;SDS011;9867;48.094;11.478;2023-02-28T03:07:08;6.17;;;5.57;;
19456;SDS011;9867;48.094;11.478;2023-02-28T03:09:34;6.07;;;5.43;;
19456;SDS011;9867;48.094;11.478;2023-02-28T03:12:01;6.27;;;5.67;;
19456;SDS011;9867;48.094;11.478;2023-02-28T03:14:35;6.53;;;5.87;;
19456;SDS011;9867;48.094;11.478;2023-02-28T03:20:12;6.73;;;6.03;;
19456;SDS011;9867;48.094;11.478;2023-02-28T03:22:46;6.57;;;5.97;;
19456;SDS011;9867;48.094;11.478;2023-02-28T03:25:28;6.77;;;6.27;;
19456;SDS011;9867;48.094;11.478;2023-02-28T03:28:00;6.70;;;6.10;;
19456;SDS011;9867;48.094;11.478;2023-02-28T03:30:38;8.07;;;5.93;;
19456;SDS011;9867;48.094;11.478;2023-02-28T03:33:11;7.13;;;6.43;;
19456;SDS011;9867;48.094;11.478;2023-02-28T03:35:42;8.33;;;6.70;;
19456;SDS011;9867;48.094;11.478;2023-02-28T03:38:14;6.60;;;6.10;;
19456;SDS011;9867;48.094;11.478;2023-02-28T03:40:46;6.87;;;6.33;;
19456;SDS011;9867;48.094;11.478;2023-02-28T03:43:18;7.90;;;6.93;;
19456;SDS011;9867;48.094;11.478;2023-02-28T03:45:48;7.87;;;7.10;;
19456;SDS011;9867;48.094;11.478;2023-02-28T03:48:19;8.43;;;7.00;;
19456;SDS011;9867;48.094;11.478;2023-02-28T03:50:49;7.03;;;6.43;;
19456;SDS011;9867;48.094;11.478;2023-02-28T03:53:21;22.30;;;20.07;;
19456;SDS011;9867;48.094;11.478;2023-02-28T03:55:53;8.10;;;7.40;;
19456;SDS011;9867;48.094;11.478;2023-02-28T03:58:26;9.77;;;8.77;;
19456;SDS011;9867;48.094;11.478;2023-02-28T04:01:00;11.53;;;10.43;;
19456;SDS011;9867;48.094;11.478;2023-02-28T04:03:34;9.43;;;7.73;;
19456;SDS011;9867;48.094;11.478;2023-02-28T04:06:04;18.93;;;17.13;;
19456;SDS011;9867;48.094;11.478;2023-02-28T04:08:32;14.00;;;12.60;;
19456;SDS011;9867;48.094;11.478;2023-02-28T04:11:00;8.40;;;7.60;;
19456;SDS011;9867;48.094;11.478;2023-02-28T04:13:31;10.20;;;9.30;;
19456;SDS011;9867;48.094;11.478;2023-02-28T04:15:57;11.40;;;8.07;;
19456;SDS011;9867;48.094;11.478;2023-02-28T04:18:24;11.60;;;10.50;;
19456;SDS011;9867;48.094;11.478;2023-02-28T04:20:50;10.53;;;8.47;;
19456;SDS011;9867;48.094;11.478;2023-02-28T04:23:17;8.47;;;7.67;;
19456;SDS011;9867;48.094;11.478;2023-02-28T04:25:44;8.97;;;8.17;;
19456;SDS011;9867;48.094;11.478;2023-02-28T04:28:10;8.57;;;7.77;;
19456;SDS011;9867;48.094;11.478;2023-02-28T04:30:37;8.90;;;8.10;;
19456;SDS011;9867;48.094;11.478;2023-02-28T04:33:04;9.43;;;8.13;;
19456;SDS011;9867;48.094;11.478;2023-02-28T04:35:30;8.13;;;7.33;;
19456;SDS011;9867;48.094;11.478;2023-02-28T04:37:57;9.40;;;8.60;;
19456;SDS011;9867;48.094;11.478;2023-02-28T04:40:24;9.93;;;8.93;;
19456;SDS011;9867;48.094;11.478;2023-02-28T04:42:50;8.87;;;8.07;;
19456;SDS011;9867;48.094;11.478;2023-02-28T04:45:16;10.23;;;9.27;;
19456;SDS011;9867;48.094;11.478;2023-02-28T04:47:43;10.10;;;9.10;;
19456;SDS011;9867;48.094;11.478;2023-02-28T04:50:10;9.53;;;8.63;;
19456;SDS011;9867;48.094;11.478;2023-02-28T04:52:36;9.80;;;8.90;;
19456;SDS011;9867;48.094;11.478;2023-02-28T04:55:03;10.00;;;9.00;;
19456;SDS011;9867;48.094;11.478;2023-02-28T04:57:31;10.37;;;9.33;;
19456;SDS011;9867;48.094;11.478;2023-02-28T04:59:58;10.50;;;9.50;;
19456;SDS011;9867;48.094;11.478;2023-02-28T05:02:24;11.53;;;9.70;;
19456;SDS011;9867;48.094;11.478;2023-02-28T05:04:50;10.03;;;9.17;;
19456;SDS011;9867;48.094;11.478;2023-02-28T05:07:17;10.40;;;9.40;;
19456;SDS011;9867;48.094;11.478;2023-02-28T05:09:43;11.47;;;10.27;;
19456;SDS011;9867;48.094;11.478;2023-02-28T05:12:10;10.40;;;9.50;;
19456;SDS011;9867;48.094;11.478;2023-02-28T05:14:37;10.70;;;9.70;;
19456;SDS011;9867;48.094;11.478;2023-02-28T05:17:03;10.40;;;9.47;;
19456;SDS011;9867;48.094;11.478;2023-02-28T05:19:29;10.67;;;9.67;;
19456;SDS011;9867;48.094;11.478;2023-02-28T05:21:56;11.40;;;10.40;;
19456;SDS011;9867;48.094;11.478;2023-02-28T05:24:22;11.77;;;10.67;;
19456;SDS011;9867;48.094;11.478;2023-02-28T05:26:49;10.80;;;9.80;;
19456;SDS011;9867;48.094;11.478;2023-02-28T05:29:17;11.80;;;10.70;;
19456;SDS011;9867;48.094;11.478;2023-02-28T05:31:44;13.13;;;10.73;;
19456;SDS011;9867;48.094;11.478;2023-02-28T05:34:10;12.80;;;11.50;;
19456;SDS011;9867;48.094;11.478;2023-02-28T05:36:38;11.97;;;10.70;;
19456;SDS011;9867;48.094;11.478;2023-02-28T05:39:05;13.40;;;11.20;;
19456;SDS011;9867;48.094;11.478;2023-02-28T05:41:32;12.07;;;10.87;;
19456;SDS011;9867;48.094;11.478;2023-02-28T05:43:59;12.37;;;11.07;;
19456;SDS011;9867;48.094;11.478;2023-02-28T05:46:27;13.50;;;12.23;;
19456;SDS011;9867;48.094;11.478;2023-02-28T05:48:54;13.57;;;12.27;;
19456;SDS011;9867;48.094;11.478;2023-02-28T05:51:21;13.53;;;12.23;;
19456;SDS011;9867;48.094;11.478;2023-02-28T05:53:47;13.70;;;12.37;;
19456;SDS011;9867;48.094;11.478;2023-02-28T05:56:15;13.30;;;12.10;;
19456;SDS011;9867;48.094;11.478;2023-02-28T05:58:41;13.43;;;12.10;;
19456;SDS011;9867;48.094;11.478;2023-02-28T06:01:21;13.67;;;12.10;;
19456;SDS011;9867;48.094;11.478;2023-02-28T06:03:49;14.07;;;12.67;;
19456;SDS011;9867;48.094;11.478;2023-02-28T06:06:17;13.57;;;12.17;;
19456;SDS011;9867;48.094;11.478;2023-02-28T06:08:43;14.50;;;13.07;;
19456;SDS011;9867;48.094;11.478;2023-02-28T06:11:10;13.90;;;12.63;;
19456;SDS011;9867;48.094;11.478;2023-02-28T06:13:36;13.60;;;12.20;;
19456;SDS011;9867;48.094;11.478;2023-02-28T06:16:03;14.40;;;13.00;;
19456;SDS011;9867;48.094;11.478;2023-02-28T06:18:29;14.97;;;13.60;;
19456;SDS011;9867;48.094;11.478;2023-02-28T06:20:57;14.53;;;13.13;;
19456;SDS011;9867;48.094;11.478;2023-02-28T06:23:24;15.03;;;13.53;;
19456;SDS011;9867;48.094;11.478;2023-02-28T06:25:50;16.50;;;13.87;;
19456;SDS011;9867;48.094;11.478;2023-02-28T06:28:18;15.77;;;14.27;;
19456;SDS011;9867;48.094;11.478;2023-02-28T06:30:44;15.53;;;14.13;;
19456;SDS011;9867;48.094;11.478;2023-02-28T06:33:11;14.80;;;13.40;;
19456;SDS011;9867;48.094;11.478;2023-02-28T06:35:38;15.90;;;14.40;;
19456;SDS011;9867;48.094;11.478;2023-02-28T06:38:04;14.93;;;13.57;;
19456;SDS011;9867;48.094;11.478;2023-02-28T06:40:31;14.90;;;13.60;;
19456;SDS011;9867;48.094;11.478;2023-02-28T06:43:01;17.00;;;15.30;;
19456;SDS011;9867;48.094;11.478;2023-02-28T06:45:28;15.60;;;14.20;;
19456;SDS011;9867;48.094;11.478;2023-02-28T06:47:54;15.37;;;13.97;;
19456;SDS011;9867;48.094;11.478;2023-02-28T06:50:21;15.33;;;13.67;;
19456;SDS011;9867;48.094;11.478;2023-02-28T06:52:47;14.93;;;13.43;;
19456;SDS011;9867;48.094;11.478;2023-02-28T06:55:14;15.23;;;13.77;;
19456;SDS011;9867;48.094;11.478;2023-02-28T06:57:41;14.50;;;13.10;;
19456;SDS011;9867;48.094;11.478;2023-02-28T07:00:09;14.70;;;13.20;;
19456;SDS011;9867;48.094;11.478;2023-02-28T07:02:37;14.97;;;13.50;;
19456;SDS011;9867;48.094;11.478;2023-02-28T07:05:03;16.03;;;13.63;;
19456;SDS011;9867;48.094;11.478;2023-02-28T07:07:30;15.77;;;14.20;;
19456;SDS011;9867;48.094;11.478;2023-02-28T07:09:57;15.20;;;13.60;;
19456;SDS011;9867;48.094;11.478;2023-02-28T07:12:24;15.90;;;14.40;;
19456;SDS011;9867;48.094;11.478;2023-02-28T07:14:51;15.43;;;13.93;;
19456;SDS011;9867;48.094;11.478;2023-02-28T07:17:17;16.03;;;14.53;;
19456;SDS011;9867;48.094;11.478;2023-02-28T07:19:44;15.43;;;13.90;;
19456;SDS011;9867;48.094;11.478;2023-02-28T07:22:10;15.50;;;14.10;;
19456;SDS011;9867;48.094;11.478;2023-02-28T07:24:37;15.10;;;13.80;;
19456;SDS011;9867;48.094;11.478;2023-02-28T07:27:03;16.27;;;14.90;;
19456;SDS011;9867;48.094;11.478;2023-02-28T07:29:30;13.83;;;12.53;;
19456;SDS011;9867;48.094;11.478;2023-02-28T07:31:57;14.40;;;13.00;;
19456;SDS011;9867;48.094;11.478;2023-02-28T07:34:24;13.27;;;11.90;;
19456;SDS011;9867;48.094;11.478;2023-02-28T07:36:52;11.50;;;9.40;;
19456;SDS011;9867;48.094;11.478;2023-02-28T07:39:19;12.73;;;11.53;;
19456;SDS011;9867;48.094;11.478;2023-02-28T07:41:46;10.00;;;9.00;;
19456;SDS011;9867;48.094;11.478;2023-02-28T07:44:12;10.27;;;9.27;;
19456;SDS011;9867;48.094;11.478;2023-02-28T07:46:39;9.83;;;8.93;;
19456;SDS011;9867;48.094;11.478;2023-02-28T07:49:06;11.27;;;10.17;;
19456;SDS011;9867;48.094;11.478;2023-02-28T07:51:33;12.00;;;10.57;;
19456;SDS011;9867;48.094;11.478;2023-02-28T07:53:59;11.13;;;10.03;;
19456;SDS011;9867;48.094;11.478;2023-02-28T07:56:26;14.07;;;10.83;;
19456;SDS011;9867;48.094;11.478;2023-02-28T07:58:53;13.93;;;11.13;;
19456;SDS011;9867;48.094;11.478;2023-02-28T08:01:19;11.93;;;10.70;;
19456;SDS011;9867;48.094;11.478;2023-02-28T08:03:46;12.00;;;10.83;;
19456;SDS011;9867;48.094;11.478;2023-02-28T08:06:16;13.37;;;10.43;;
19456;SDS011;9867;48.094;11.478;2023-02-28T08:08:44;11.50;;;10.50;;
19456;SDS011;9867;48.094;11.478;2023-02-28T08:11:10;10.90;;;9.67;;
19456;SDS011;9867;48.094;11.478;2023-02-28T08:13:37;12.30;;;11.00;;
19456;SDS011;9867;48.094;11.478;2023-02-28T08:16:04;12.33;;;11.13;;
19456;SDS011;9867;48.094;11.478;2023-02-28T08:18:31;13.20;;;11.90;;
19456;SDS011;9867;48.094;11.478;2023-02-28T08:20:59;13.17;;;11.80;;
19456;SDS011;9867;48.094;11.478;2023-02-28T08:23:26;13.87;;;12.43;;
19456;SDS011;9867;48.094;11.478;2023-02-28T08:25:53;16.00;;;12.70;;
19456;SDS011;9867;48.094;11.478;2023-02-28T08:28:20;13.93;;;12.53;;
19456;SDS011;9867;48.094;11.478;2023-02-28T08:30:47;13.67;;;12.27;;
19456;SDS011;9867;48.094;11.478;2023-02-28T08:33:16;13.37;;;11.93;;
19456;SDS011;9867;48.094;11.478;2023-02-28T08:35:42;14.10;;;12.30;;
19456;SDS011;9867;48.094;11.478;2023-02-28T08:38:09;15.20;;;13.30;;
19456;SDS011;9867;48.094;11.478;2023-02-28T08:40:36;15.13;;;12.93;;
19456;SDS011;9867;48.094;11.478;2023-02-28T08:43:02;14.13;;;12.50;;
19456;SDS011;9867;48.094;11.478;2023-02-28T08:45:29;13.80;;;11.83;;
19456;SDS011;9867;48.094;11.478;2023-02-28T08:47:56;13.67;;;12.17;;
19456;SDS011;9867;48.094;11.478;2023-02-28T08:50:22;14.27;;;12.63;;
19456;SDS011;9867;48.094;11.478;2023-02-28T08:52:48;14.27;;;12.50;;
19456;SDS011;9867;48.094;11.478;2023-02-28T08:55:15;14.40;;;12.70;;
19456;SDS011;9867;48.094;11.478;2023-02-28T08:57:42;17.17;;;12.77;;
19456;SDS011;9867;48.094;11.478;2023-02-28T09:00:09;14.97;;;12.97;;
19456;SDS011;9867;48.094;11.478;2023-02-28T09:02:39;13.73;;;11.83;;
19456;SDS011;9867;48.094;11.478;2023-02-28T09:05:06;19.07;;;12.43;;
19456;SDS011;9867;48.094;11.478;2023-02-28T09:07:34;15.80;;;12.60;;
19456;SDS011;9867;48.094;11.478;2023-02-28T09:10:00;19.63;;;13.80;;
19456;SDS011;9867;48.094;11.478;2023-02-28T09:12:27;15.70;;;12.20;;
19456;SDS011;9867;48.094;11.478;2023-02-28T09:14:58;14.10;;;11.10;;
19456;SDS011;9867;48.094;11.478;2023-02-28T09:17:24;17.13;;;12.70;;
19456;SDS011;9867;48.094;11.478;2023-02-28T09:19:56;14.03;;;12.53;;
19456;SDS011;9867;48.094;11.478;2023-02-28T09:22:23;15.00;;;12.27;;
19456;SDS011;9867;48.094;11.478;2023-02-28T09:24:49;15.97;;;13.30;;
19456;SDS011;9867;48.094;11.478;2023-02-28T09:27:16;15.33;;;12.77;;
19456;SDS011;9867;48.094;11.478;2023-02-28T09:29:42;15.37;;;13.17;;
19456;SDS011;9867;48.094;11.478;2023-02-28T09:32:09;14.33;;;12.83;;
19456;SDS011;9867;48.094;11.478;2023-02-28T09:34:36;13.90;;;12.40;;
19456;SDS011;9867;48.094;11.478;2023-02-28T09:37:03;15.27;;;12.30;;
19456;SDS011;9867;48.094;11.478;2023-02-28T09:39:30;15.23;;;13.13;;
19456;SDS011;9867;48.094;11.478;2023-02-28T09:41:58;17.07;;;13.67;;
19456;SDS011;9867;48.094;11.478;2023-02-28T09:44:26;16.97;;;13.00;;
19456;SDS011;9867;48.094;11.478;2023-02-28T09:46:58;15.53;;;13.60;;
19456;SDS011;9867;48.094;11.478;2023-02-28T09:49:33;14.53;;;13.03;;
19456;SDS011;9867;48.094;11.478;2023-02-28T09:52:07;16.33;;;12.73;;
19456;SDS011;9867;48.094;11.478;2023-02-28T09:54:36;16.90;;;12.80;;
19456;SDS011;9867;48.094;11.478;2023-02-28T09:57:08;15.50;;;13.83;;
19456;SDS011;9867;48.094;11.478;2023-02-28T09:59:53;17.97;;;14.80;;
19456;SDS011;9867;48.094;11.478;2023-02-28T10:02:42;14.13;;;12.63;;
19456;SDS011;9867;48.094;11.478;2023-02-28T10:05:20;14.20;;;12.80;;
19456;SDS011;9867;48.094;11.478;2023-02-28T10:07:51;14.33;;;12.93;;
19456;SDS011;9867;48.094;11.478;2023-02-28T10:10:28;14.07;;;12.40;;
19456;SDS011;9867;48.094;11.478;2023-02-28T10:12:59;13.80;;;12.33;;
19456;SDS011;9867;48.094;11.478;2023-02-28T10:15:31;13.17;;;11.90;;
19456;SDS011;9867;48.094;11.478;2023-02-28T10:18:00;13.50;;;12.13;;
19456;SDS011;9867;48.094;11.478;2023-02-28T10:20:37;14.87;;;12.00;;
19456;SDS011;9867;48.094;11.478;2023-02-28T10:23:08;13.10;;;11.47;;
19456;SDS011;9867;48.094;11.478;2023-02-28T10:25:40;14.07;;;12.53;;
19456;SDS011;9867;48.094;11.478;2023-02-28T10:28:09;16.57;;;12.47;;
19456;SDS011;9867;48.094;11.478;2023-02-28T10:30:38;13.90;;;12.43;;
19456;SDS011;9867;48.094;11.478;2023-02-28T10:33:11;15.83;;;12.83;;
19456;SDS011;9867;48.094;11.478;2023-02-28T10:35:46;16.70;;;13.70;;
19456;SDS011;9867;48.094;11.478;2023-02-28T10:38:15;14.40;;;12.90;;
19456;SDS011;9867;48.094;11.478;2023-02-28T10:40:44;16.87;;;12.60;;
19456;SDS011;9867;48.094;11.478;2023-02-28T10:43:18;15.33;;;12.47;;
19456;SDS011;9867;48.094;11.478;2023-02-28T10:45:57;14.30;;;12.80;;
19456;SDS011;9867;48.094;11.478;2023-02-28T10:48:36;14.77;;;13.07;;
19456;SDS011;9867;48.094;11.478;2023-02-28T10:51:04;14.00;;;12.50;;
19456;SDS011;9867;48.094;11.478;2023-02-28T10:53:34;15.17;;;12.00;;
19456;SDS011;9867;48.094;11.478;2023-02-28T10:56:24;13.97;;;12.47;;
19456;SDS011;9867;48.094;11.478;2023-02-28T10:58:54;13.37;;;11.97;;
19456;SDS011;9867;48.094;11.478;2023-02-28T11:01:22;16.20;;;12.17;;
19456;SDS011;9867;48.094;11.478;2023-02-28T11:03:50;15.80;;;12.33;;
19456;SDS011;9867;48.094;11.478;2023-02-28T11:06:19;13.97;;;12.17;;
19456;SDS011;9867;48.094;11.478;2023-02-28T11:08:48;14.03;;;11.93;;
19456;SDS011;9867;48.094;11.478;2023-02-28T11:11:17;14.33;;;12.47;;
19456;SDS011;9867;48.094;11.478;2023-02-28T11:13:45;13.43;;;12.03;;
19456;SDS011;9867;48.094;11.478;2023-02-28T11:16:13;14.03;;;12.40;;
19456;SDS011;9867;48.094;11.478;2023-02-28T11:18:42;15.50;;;11.67;;
19456;SDS011;9867;48.094;11.478;2023-02-28T11:21:22;12.03;;;10.83;;
19456;SDS011;9867;48.094;11.478;2023-02-28T11:23:54;14.83;;;12.87;;
19456;SDS011;9867;48.094;11.478;2023-02-28T11:26:38;13.90;;;12.40;;
19456;SDS011;9867;48.094;11.478;2023-02-28T11:29:18;13.40;;;12.10;;
19456;SDS011;9867;48.094;11.478;2023-02-28T11:32:07;14.20;;;12.80;;
19456;SDS011;9867;48.094;11.478;2023-02-28T11:34:39;14.13;;;12.20;;
19456;SDS011;9867;48.094;11.478;2023-02-28T11:37:14;13.73;;;12.17;;
19456;SDS011;9867;48.094;11.478;2023-02-28T11:39:47;13.17;;;11.97;;
19456;SDS011;9867;48.094;11.478;2023-02-28T11:42:27;13.97;;;12.57;;
19456;SDS011;9867;48.094;11.478;2023-02-28T11:45:11;14.17;;;12.77;;
19456;SDS011;9867;48.094;11.478;2023-02-28T11:47:47;15.93;;;13.17;;
19456;SDS011;9867;48.094;11.478;2023-02-28T11:50:24;14.87;;;13.13;;
19456;SDS011;9867;48.094;11.478;2023-02-28T11:53:10;14.53;;;13.03;;
19456;SDS011;9867;48.094;11.478;2023-02-28T11:55:43;13.57;;;12.23;;
19456;SDS011;9867;48.094;11.478;2023-02-28T11:58:19;17.40;;;13.27;;
19456;SDS011;9867;48.094;11.478;2023-02-28T12:01:03;16.90;;;13.33;;
19456;SDS011;9867;48.094;11.478;2023-02-28T12:03:43;15.13;;;13.60;;
19456;SDS011;9867;48.094;11.478;2023-02-28T12:06:20;14.50;;;13.00;;
19456;SDS011;9867;48.094;11.478;2023-02-28T12:08:56;14.60;;;13.07;;
19456;SDS011;9867;48.094;11.478;2023-02-28T12:11:31;15.33;;;12.97;;
19456;SDS011;9867;48.094;11.478;2023-02-28T12:14:14;15.47;;;13.93;;
19456;SDS011;9867;48.094;11.478;2023-02-28T12:16:58;15.00;;;13.43;;
19456;SDS011;9867;48.094;11.478;2023-02-28T12:19:33;14.43;;;13.00;;
19456;SDS011;9867;48.094;11.478;2023-02-28T12:28:07;16.47;;;13.33;;
19456;SDS011;9867;48.094;11.478;2023-02-28T12:30:38;15.20;;;13.60;;
19456;SDS011;9867;48.094;11.478;2023-02-28T12:33:14;15.33;;;13.73;;
19456;SDS011;9867;48.094;11.478;2023-02-28T12:35:44;15.67;;;13.03;;
19456;SDS011;9867;48.094;11.478;2023-02-28T12:38:18;14.90;;;13.23;;
19456;SDS011;9867;48.094;11.478;2023-02-28T12:40:50;13.90;;;12.43;;
19456;SDS011;9867;48.094;11.478;2023-02-28T12:43:30;14.30;;;12.80;;
19456;SDS011;9867;48.094;11.478;2023-02-28T12:46:00;16.77;;;13.57;;
19456;SDS011;9867;48.094;11.478;2023-02-28T12:48:31;15.30;;;12.97;;
19456;SDS011;9867;48.094;11.478;2023-02-28T12:51:08;14.47;;;12.87;;
19456;SDS011;9867;48.094;11.478;2023-02-28T12:53:40;14.03;;;12.63;;
19456;SDS011;9867;48.094;11.478;2023-02-28T12:56:20;14.83;;;13.33;;
19456;SDS011;9867;48.094;11.478;2023-02-28T12:59:00;18.73;;;13.30;;
19456;SDS011;9867;48.094;11.478;2023-02-28T13:01:40;16.70;;;13.17;;
19456;SDS011;9867;48.094;11.478;2023-02-28T13:07:17;13.93;;;12.43;;
19456;SDS011;9867;48.094;11.478;2023-02-28T13:10:08;12.90;;;11.63;;
19456;SDS011;9867;48.094;11.478;2023-02-28T13:12:36;13.37;;;12.07;;
19456;SDS011;9867;48.094;11.478;2023-02-28T13:15:16;13.33;;;11.27;;
19456;SDS011;9867;48.094;11.478;2023-02-28T13:17:48;12.83;;;11.50;;
19456;SDS011;9867;48.094;11.478;2023-02-28T13:20:19;17.00;;;12.37;;
19456;SDS011;9867;48.094;11.478;2023-02-28T13:22:48;14.97;;;12.27;;
19456;SDS011;9867;48.094;11.478;2023-02-28T13:31:32;12.27;;;11.07;;
19456;SDS011;9867;48.094;11.478;2023-02-28T13:34:11;12.33;;;11.07;;
19456;SDS011;9867;48.094;11.478;2023-02-28T13:36:39;13.90;;;11.53;;
19456;SDS011;9867;48.094;11.478;2023-02-28T13:47:52;14.43;;;12.57;;
19456;SDS011;9867;48.094;11.478;2023-02-28T13:50:21;13.13;;;11.83;;
19456;SDS011;9867;48.094;11.478;2023-02-28T13:52:56;13.30;;;11.97;;
19456;SDS011;9867;48.094;11.478;2023-02-28T13:55:42;13.43;;;12.23;;
19456;SDS011;9867;48.094;11.478;2023-02-28T13:58:18;13.93;;;12.53;;
19456;SDS011;9867;48.094;11.478;2023-02-28T14:01:07;13.87;;;12.50;;
19456;SDS011;9867;48.094;11.478;2023-02-28T14:06:46;13.73;;;12.27;;
19456;SDS011;9867;48.094;11.478;2023-02-28T14:09:19;13.93;;;12.63;;
19456;SDS011;9867;48.094;11.478;2023-02-28T14:11:53;14.20;;;12.80;;
19456;SDS011;9867;48.094;11.478;2023-02-28T14:17:21;13.33;;;11.37;;
19456;SDS011;9867;48.094;11.478;2023-02-28T14:19:49;12.93;;;11.70;;
19456;SDS011;9867;48.094;11.478;2023-02-28T14:22:22;13.20;;;12.00;;
19456;SDS011;9867;48.094;11.478;2023-02-28T14:25:11;12.57;;;11.37;;
19456;SDS011;9867;48.094;11.478;2023-02-28T14:27:48;13.30;;;11.90;;
19456;SDS011;9867;48.094;11.478;2023-02-28T14:30:26;13.53;;;12.20;;
19456;SDS011;9867;48.094;11.478;2023-02-28T14:36:03;12.80;;;11.60;;
19456;SDS011;9867;48.094;11.478;2023-02-28T14:38:36;13.57;;;12.23;;
19456;SDS011;9867;48.094;11.478;2023-02-28T14:41:12;13.80;;;12.50;;
19456;SDS011;9867;48.094;11.478;2023-02-28T14:43:47;13.17;;;11.87;;
19456;SDS011;9867;48.094;11.478;2023-02-28T14:46:16;13.57;;;12.23;;
19456;SDS011;9867;48.094;11.478;2023-02-28T14:48:44;13.83;;;12.03;;
19456;SDS011;9867;48.094;11.478;2023-02-28T14:51:13;14.33;;;12.77;;
19456;SDS011;9867;48.094;11.478;2023-02-28T14:53:49;13.93;;;11.57;;
19456;SDS011;9867;48.094;11.478;2023-02-28T14:56:21;12.73;;;11.53;;
19456;SDS011;9867;48.094;11.478;2023-02-28T14:58:53;14.43;;;11.43;;
19456;SDS011;9867;48.094;11.478;2023-02-28T15:01:21;13.67;;;11.50;;
19456;SDS011;9867;48.094;11.478;2023-02-28T15:03:56;12.50;;;11.30;;
19456;SDS011;9867;48.094;11.478;2023-02-28T15:06:25;12.37;;;11.17;;
19456;SDS011;9867;48.094;11.478;2023-02-28T15:09:07;13.67;;;11.93;;
19456;SDS011;9867;48.094;11.478;2023-02-28T15:11:39;11.87;;;10.70;;
19456;SDS011;9867;48.094;11.478;2023-02-28T15:14:06;12.53;;;11.30;;
19456;SDS011;9867;48.094;11.478;2023-02-28T15:16:34;12.10;;;11.00;;
19456;SDS011;9867;48.094;11.478;2023-02-28T15:19:05;12.57;;;11.27;;
19456;SDS011;9867;48.094;11.478;2023-02-28T15:21:40;12.00;;;10.53;;
19456;SDS011;9867;48.094;11.478;2023-02-28T15:24:11;11.90;;;10.70;;
19456;SDS011;9867;48.094;11.478;2023-02-28T15:26:50;13.10;;;10.73;;
19456;SDS011;9867;48.094;11.478;2023-02-28T15:29:20;13.10;;;11.80;;
19456;SDS011;9867;48.094;11.478;2023-02-28T15:31:49;13.87;;;11.57;;
19456;SDS011;9867;48.094;11.478;2023-02-28T15:34:26;13.87;;;11.83;;